sensor_id;sensor_type;location;lat;lon;timestamp;P1;durP1;ratioP1;P2;durP2;ratioP2
17832;SDS011;9041;49.718;21.798;2023-08-01T00:00:02;8.18;;;5.38;;
17832;SDS011;9041;49.718;21.798;2023-08-01T00:02:49;11.32;;;5.22;;
17832;SDS011;9041;49.718;21.798;2023-08-01T00:05:16;9.57;;;5.50;;
17832;SDS011;9041;49.718;21.798;2023-08-01T00:07:43;8.68;;;5.25;;
17832;SDS011;9041;49.718;21.798;2023-08-01T00:10:09;8.95;;;5.55;;
17832;SDS011;9041;49.718;21.798;2023-08-01T00:12:37;15.15;;;5.57;;
17832;SDS011;9041;49.718;21.798;2023-08-01T00:15:04;12.88;;;5.53;;
17832;SDS011;9041;49.718;21.798;2023-08-01T00:17:31;11.63;;;5.88;;
17832;SDS011;9041;49.718;21.798;2023-08-01T00:19:58;10.82;;;5.80;;
17832;SDS011;9041;49.718;21.798;2023-08-01T00:22:24;8.00;;;5.32;;
17832;SDS011;9041;49.718;21.798;2023-08-01T00:24:51;7.18;;;4.90;;
17832;SDS011;9041;49.718;21.798;2023-08-01T00:27:18;12.32;;;5.57;;
17832;SDS011;9041;49.718;21.798;2023-08-01T00:29:46;11.82;;;6.13;;
17832;SDS011;9041;49.718;21.798;2023-08-01T00:32:12;10.98;;;5.32;;
17832;SDS011;9041;49.718;21.798;2023-08-01T00:34:39;11.43;;;6.28;;
17832;SDS011;9041;49.718;21.798;2023-08-01T00:37:06;14.07;;;6.15;;
17832;SDS011;9041;49.718;21.798;2023-08-01T00:39:32;11.90;;;6.05;;
17832;SDS011;9041;49.718;21.798;2023-08-01T00:41:59;11.73;;;5.47;;
17832;SDS011;9041;49.718;21.798;2023-08-01T00:44:26;10.50;;;5.53;;
17832;SDS011;9041;49.718;21.798;2023-08-01T00:46:54;8.95;;;5.65;;
17832;SDS011;9041;49.718;21.798;2023-08-01T00:49:20;8.02;;;5.72;;
17832;SDS011;9041;49.718;21.798;2023-08-01T00:51:47;9.82;;;5.43;;
17832;SDS011;9041;49.718;21.798;2023-08-01T00:54:13;10.20;;;5.13;;
17832;SDS011;9041;49.718;21.798;2023-08-01T00:56:40;9.23;;;5.75;;
17832;SDS011;9041;49.718;21.798;2023-08-01T00:59:07;9.52;;;5.45;;
17832;SDS011;9041;49.718;21.798;2023-08-01T01:01:33;8.23;;;5.43;;
17832;SDS011;9041;49.718;21.798;2023-08-01T01:04:01;10.38;;;5.50;;
17832;SDS011;9041;49.718;21.798;2023-08-01T01:06:30;9.93;;;5.18;;
17832;SDS011;9041;49.718;21.798;2023-08-01T01:08:59;9.98;;;5.45;;
17832;SDS011;9041;49.718;21.798;2023-08-01T01:11:25;12.43;;;6.05;;
17832;SDS011;9041;49.718;21.798;2023-08-01T01:13:53;10.80;;;6.80;;
17832;SDS011;9041;49.718;21.798;2023-08-01T01:16:20;14.00;;;6.47;;
17832;SDS011;9041;49.718;21.798;2023-08-01T01:18:47;15.77;;;7.68;;
17832;SDS011;9041;49.718;21.798;2023-08-01T01:21:15;11.30;;;6.32;;
17832;SDS011;9041;49.718;21.798;2023-08-01T01:23:42;13.65;;;7.43;;
17832;SDS011;9041;49.718;21.798;2023-08-01T01:26:09;13.30;;;6.85;;
17832;SDS011;9041;49.718;21.798;2023-08-01T01:28:37;16.85;;;7.35;;
17832;SDS011;9041;49.718;21.798;2023-08-01T01:31:04;13.90;;;6.82;;
17832;SDS011;9041;49.718;21.798;2023-08-01T01:33:30;12.73;;;6.95;;
17832;SDS011;9041;49.718;21.798;2023-08-01T01:35:57;10.70;;;6.28;;
17832;SDS011;9041;49.718;21.798;2023-08-01T01:38:27;14.35;;;6.50;;
17832;SDS011;9041;49.718;21.798;2023-08-01T01:40:53;9.65;;;5.75;;
17832;SDS011;9041;49.718;21.798;2023-08-01T01:43:20;13.07;;;6.13;;
17832;SDS011;9041;49.718;21.798;2023-08-01T01:45:47;9.38;;;5.72;;
17832;SDS011;9041;49.718;21.798;2023-08-01T01:48:13;9.95;;;5.93;;
17832;SDS011;9041;49.718;21.798;2023-08-01T01:50:40;19.38;;;8.82;;
17832;SDS011;9041;49.718;21.798;2023-08-01T01:53:06;24.85;;;12.57;;
17832;SDS011;9041;49.718;21.798;2023-08-01T01:55:34;24.30;;;11.93;;
17832;SDS011;9041;49.718;21.798;2023-08-01T01:58:01;16.80;;;8.80;;
17832;SDS011;9041;49.718;21.798;2023-08-01T02:00:28;11.73;;;6.90;;
17832;SDS011;9041;49.718;21.798;2023-08-01T02:02:54;8.88;;;5.90;;
17832;SDS011;9041;49.718;21.798;2023-08-01T02:05:21;10.20;;;5.07;;
17832;SDS011;9041;49.718;21.798;2023-08-01T02:07:47;11.55;;;5.95;;
17832;SDS011;9041;49.718;21.798;2023-08-01T02:10:14;8.30;;;5.28;;
17832;SDS011;9041;49.718;21.798;2023-08-01T02:12:42;9.65;;;5.88;;
17832;SDS011;9041;49.718;21.798;2023-08-01T02:15:09;10.90;;;5.93;;
17832;SDS011;9041;49.718;21.798;2023-08-01T02:17:35;10.10;;;5.80;;
17832;SDS011;9041;49.718;21.798;2023-08-01T02:20:02;10.18;;;5.80;;
17832;SDS011;9041;49.718;21.798;2023-08-01T02:22:30;9.15;;;5.88;;
17832;SDS011;9041;49.718;21.798;2023-08-01T02:24:56;11.45;;;6.00;;
17832;SDS011;9041;49.718;21.798;2023-08-01T02:27:23;10.07;;;6.47;;
17832;SDS011;9041;49.718;21.798;2023-08-01T02:29:51;11.38;;;6.63;;
17832;SDS011;9041;49.718;21.798;2023-08-01T02:32:17;13.68;;;6.05;;
17832;SDS011;9041;49.718;21.798;2023-08-01T02:34:44;10.85;;;6.35;;
17832;SDS011;9041;49.718;21.798;2023-08-01T02:37:11;10.13;;;6.05;;
17832;SDS011;9041;49.718;21.798;2023-08-01T02:39:37;11.23;;;6.35;;
17832;SDS011;9041;49.718;21.798;2023-08-01T02:42:04;10.38;;;6.00;;
17832;SDS011;9041;49.718;21.798;2023-08-01T02:44:30;11.20;;;5.88;;
17832;SDS011;9041;49.718;21.798;2023-08-01T02:46:58;8.48;;;5.70;;
17832;SDS011;9041;49.718;21.798;2023-08-01T02:49:25;12.23;;;5.57;;
17832;SDS011;9041;49.718;21.798;2023-08-01T02:51:52;7.90;;;5.10;;
17832;SDS011;9041;49.718;21.798;2023-08-01T02:54:18;8.82;;;5.57;;
17832;SDS011;9041;49.718;21.798;2023-08-01T02:56:45;7.63;;;5.38;;
17832;SDS011;9041;49.718;21.798;2023-08-01T02:59:11;13.05;;;5.68;;
17832;SDS011;9041;49.718;21.798;2023-08-01T03:01:38;10.65;;;5.68;;
17832;SDS011;9041;49.718;21.798;2023-08-01T03:04:06;11.52;;;5.82;;
17832;SDS011;9041;49.718;21.798;2023-08-01T03:06:33;9.00;;;5.32;;
17832;SDS011;9041;49.718;21.798;2023-08-01T03:08:59;10.13;;;6.15;;
17832;SDS011;9041;49.718;21.798;2023-08-01T03:11:26;9.02;;;6.03;;
17832;SDS011;9041;49.718;21.798;2023-08-01T03:13:53;15.80;;;7.35;;
17832;SDS011;9041;49.718;21.798;2023-08-01T03:16:19;10.30;;;7.03;;
17832;SDS011;9041;49.718;21.798;2023-08-01T03:18:46;10.13;;;6.57;;
17832;SDS011;9041;49.718;21.798;2023-08-01T03:21:14;10.90;;;6.00;;
17832;SDS011;9041;49.718;21.798;2023-08-01T03:23:41;9.93;;;6.43;;
17832;SDS011;9041;49.718;21.798;2023-08-01T03:26:08;8.52;;;5.85;;
17832;SDS011;9041;49.718;21.798;2023-08-01T03:28:34;8.52;;;5.75;;
17832;SDS011;9041;49.718;21.798;2023-08-01T03:31:01;8.00;;;5.50;;
17832;SDS011;9041;49.718;21.798;2023-08-01T03:33:28;8.45;;;5.53;;
17832;SDS011;9041;49.718;21.798;2023-08-01T03:35:54;8.50;;;5.35;;
17832;SDS011;9041;49.718;21.798;2023-08-01T03:38:22;10.23;;;5.55;;
17832;SDS011;9041;49.718;21.798;2023-08-01T03:40:49;8.73;;;5.60;;
17832;SDS011;9041;49.718;21.798;2023-08-01T03:43:15;9.02;;;5.18;;
17832;SDS011;9041;49.718;21.798;2023-08-01T03:45:48;11.95;;;5.63;;
17832;SDS011;9041;49.718;21.798;2023-08-01T03:48:14;9.18;;;5.85;;
17832;SDS011;9041;49.718;21.798;2023-08-01T03:50:41;9.00;;;5.30;;
17832;SDS011;9041;49.718;21.798;2023-08-01T03:53:08;9.23;;;5.90;;
17832;SDS011;9041;49.718;21.798;2023-08-01T03:55:36;11.75;;;5.97;;
17832;SDS011;9041;49.718;21.798;2023-08-01T03:58:03;10.52;;;5.45;;
17832;SDS011;9041;49.718;21.798;2023-08-01T04:00:30;10.60;;;5.70;;
17832;SDS011;9041;49.718;21.798;2023-08-01T04:02:57;8.95;;;5.38;;
17832;SDS011;9041;49.718;21.798;2023-08-01T04:05:24;7.50;;;5.63;;
17832;SDS011;9041;49.718;21.798;2023-08-01T04:07:50;9.80;;;5.72;;
17832;SDS011;9041;49.718;21.798;2023-08-01T04:10:19;11.23;;;6.00;;
17832;SDS011;9041;49.718;21.798;2023-08-01T04:12:48;7.75;;;5.45;;
17832;SDS011;9041;49.718;21.798;2023-08-01T04:15:14;11.68;;;6.85;;
17832;SDS011;9041;49.718;21.798;2023-08-01T04:17:41;9.63;;;5.93;;
17832;SDS011;9041;49.718;21.798;2023-08-01T04:20:08;10.43;;;6.22;;
17832;SDS011;9041;49.718;21.798;2023-08-01T04:22:34;12.65;;;6.95;;
17832;SDS011;9041;49.718;21.798;2023-08-01T04:25:06;8.32;;;5.72;;
17832;SDS011;9041;49.718;21.798;2023-08-01T04:27:33;10.98;;;6.20;;
17832;SDS011;9041;49.718;21.798;2023-08-01T04:30:01;9.82;;;6.18;;
17832;SDS011;9041;49.718;21.798;2023-08-01T04:32:28;12.80;;;7.18;;
17832;SDS011;9041;49.718;21.798;2023-08-01T04:34:54;13.73;;;5.95;;
17832;SDS011;9041;49.718;21.798;2023-08-01T04:37:21;15.13;;;6.30;;
17832;SDS011;9041;49.718;21.798;2023-08-01T04:39:48;8.32;;;6.05;;
17832;SDS011;9041;49.718;21.798;2023-08-01T04:42:14;9.90;;;6.10;;
17832;SDS011;9041;49.718;21.798;2023-08-01T04:44:41;9.70;;;6.07;;
17832;SDS011;9041;49.718;21.798;2023-08-01T04:47:09;10.25;;;5.70;;
17832;SDS011;9041;49.718;21.798;2023-08-01T04:49:36;8.70;;;5.70;;
17832;SDS011;9041;49.718;21.798;2023-08-01T04:52:03;6.65;;;4.85;;
17832;SDS011;9041;49.718;21.798;2023-08-01T04:54:31;8.82;;;5.55;;
17832;SDS011;9041;49.718;21.798;2023-08-01T04:56:57;6.38;;;4.97;;
17832;SDS011;9041;49.718;21.798;2023-08-01T04:59:24;10.70;;;4.50;;
17832;SDS011;9041;49.718;21.798;2023-08-01T05:01:50;13.80;;;5.13;;
17832;SDS011;9041;49.718;21.798;2023-08-01T05:04:18;6.72;;;4.85;;
17832;SDS011;9041;49.718;21.798;2023-08-01T05:06:45;7.03;;;4.55;;
17832;SDS011;9041;49.718;21.798;2023-08-01T05:09:12;5.75;;;4.28;;
17832;SDS011;9041;49.718;21.798;2023-08-01T05:11:38;6.90;;;4.43;;
17832;SDS011;9041;49.718;21.798;2023-08-01T05:14:05;8.60;;;4.22;;
17832;SDS011;9041;49.718;21.798;2023-08-01T05:16:32;6.35;;;4.38;;
17832;SDS011;9041;49.718;21.798;2023-08-01T05:18:58;7.15;;;4.20;;
17832;SDS011;9041;49.718;21.798;2023-08-01T05:21:26;8.85;;;4.50;;
17832;SDS011;9041;49.718;21.798;2023-08-01T05:23:53;6.85;;;4.38;;
17832;SDS011;9041;49.718;21.798;2023-08-01T05:26:19;8.48;;;4.18;;
17832;SDS011;9041;49.718;21.798;2023-08-01T05:28:46;7.60;;;4.35;;
17832;SDS011;9041;49.718;21.798;2023-08-01T05:31:12;8.10;;;4.30;;
17832;SDS011;9041;49.718;21.798;2023-08-01T05:33:39;8.65;;;3.88;;
17832;SDS011;9041;49.718;21.798;2023-08-01T05:36:06;8.40;;;4.07;;
17832;SDS011;9041;49.718;21.798;2023-08-01T05:38:34;10.32;;;4.28;;
17832;SDS011;9041;49.718;21.798;2023-08-01T05:41:00;5.97;;;4.00;;
17832;SDS011;9041;49.718;21.798;2023-08-01T05:43:27;10.43;;;3.90;;
17832;SDS011;9041;49.718;21.798;2023-08-01T05:45:54;6.75;;;4.22;;
17832;SDS011;9041;49.718;21.798;2023-08-01T05:48:20;8.27;;;4.18;;
17832;SDS011;9041;49.718;21.798;2023-08-01T05:50:47;9.20;;;4.40;;
17832;SDS011;9041;49.718;21.798;2023-08-01T05:53:14;6.32;;;3.70;;
17832;SDS011;9041;49.718;21.798;2023-08-01T05:55:42;4.65;;;3.75;;
17832;SDS011;9041;49.718;21.798;2023-08-01T05:58:09;8.85;;;4.15;;
17832;SDS011;9041;49.718;21.798;2023-08-01T06:00:35;5.65;;;4.28;;
17832;SDS011;9041;49.718;21.798;2023-08-01T06:03:02;7.45;;;4.15;;
17832;SDS011;9041;49.718;21.798;2023-08-01T06:05:29;6.38;;;4.22;;
17832;SDS011;9041;49.718;21.798;2023-08-01T06:07:56;8.15;;;3.95;;
17832;SDS011;9041;49.718;21.798;2023-08-01T06:10:22;8.15;;;4.15;;
17832;SDS011;9041;49.718;21.798;2023-08-01T06:12:50;8.82;;;3.88;;
17832;SDS011;9041;49.718;21.798;2023-08-01T06:15:17;8.50;;;4.18;;
17832;SDS011;9041;49.718;21.798;2023-08-01T06:17:44;5.50;;;3.83;;
17832;SDS011;9041;49.718;21.798;2023-08-01T06:20:11;6.30;;;3.50;;
17832;SDS011;9041;49.718;21.798;2023-08-01T06:22:38;6.45;;;3.75;;
17832;SDS011;9041;49.718;21.798;2023-08-01T06:25:05;6.10;;;3.40;;
17832;SDS011;9041;49.718;21.798;2023-08-01T06:27:32;5.80;;;3.47;;
17832;SDS011;9041;49.718;21.798;2023-08-01T06:30:00;8.40;;;3.88;;
17832;SDS011;9041;49.718;21.798;2023-08-01T06:32:27;4.68;;;3.05;;
17832;SDS011;9041;49.718;21.798;2023-08-01T06:34:53;8.02;;;3.10;;
17832;SDS011;9041;49.718;21.798;2023-08-01T06:37:20;5.90;;;3.28;;
17832;SDS011;9041;49.718;21.798;2023-08-01T06:39:46;6.43;;;3.25;;
17832;SDS011;9041;49.718;21.798;2023-08-01T06:42:13;6.05;;;3.38;;
17832;SDS011;9041;49.718;21.798;2023-08-01T06:44:41;6.13;;;3.20;;
17832;SDS011;9041;49.718;21.798;2023-08-01T06:47:09;5.38;;;3.03;;
17832;SDS011;9041;49.718;21.798;2023-08-01T06:49:36;7.80;;;3.30;;
17832;SDS011;9041;49.718;21.798;2023-08-01T06:52:02;8.90;;;3.17;;
17832;SDS011;9041;49.718;21.798;2023-08-01T06:54:29;5.20;;;2.90;;
17832;SDS011;9041;49.718;21.798;2023-08-01T06:56:56;5.35;;;2.95;;
17832;SDS011;9041;49.718;21.798;2023-08-01T06:59:24;9.50;;;3.38;;
17832;SDS011;9041;49.718;21.798;2023-08-01T07:01:50;6.18;;;2.83;;
17832;SDS011;9041;49.718;21.798;2023-08-01T07:04:18;8.48;;;3.38;;
17832;SDS011;9041;49.718;21.798;2023-08-01T07:06:45;6.15;;;2.90;;
17832;SDS011;9041;49.718;21.798;2023-08-01T07:09:12;3.53;;;2.47;;
17832;SDS011;9041;49.718;21.798;2023-08-01T07:11:38;8.63;;;3.08;;
17832;SDS011;9041;49.718;21.798;2023-08-01T07:14:05;5.00;;;3.10;;
17832;SDS011;9041;49.718;21.798;2023-08-01T07:16:31;4.90;;;2.65;;
17832;SDS011;9041;49.718;21.798;2023-08-01T07:18:59;4.90;;;2.78;;
17832;SDS011;9041;49.718;21.798;2023-08-01T07:21:27;3.53;;;2.72;;
17832;SDS011;9041;49.718;21.798;2023-08-01T07:23:54;4.45;;;2.55;;
17832;SDS011;9041;49.718;21.798;2023-08-01T07:26:23;4.30;;;2.33;;
17832;SDS011;9041;49.718;21.798;2023-08-01T07:28:49;4.78;;;2.80;;
17832;SDS011;9041;49.718;21.798;2023-08-01T07:31:16;5.22;;;2.53;;
17832;SDS011;9041;49.718;21.798;2023-08-01T07:33:43;4.53;;;2.70;;
17832;SDS011;9041;49.718;21.798;2023-08-01T07:36:10;5.07;;;2.40;;
17832;SDS011;9041;49.718;21.798;2023-08-01T07:38:38;4.70;;;2.70;;
17832;SDS011;9041;49.718;21.798;2023-08-01T07:41:05;6.70;;;3.13;;
17832;SDS011;9041;49.718;21.798;2023-08-01T07:43:33;28.15;;;3.47;;
17832;SDS011;9041;49.718;21.798;2023-08-01T07:45:59;16.52;;;3.10;;
17832;SDS011;9041;49.718;21.798;2023-08-01T07:48:26;17.05;;;3.90;;
17832;SDS011;9041;49.718;21.798;2023-08-01T07:50:53;3.03;;;2.53;;
17832;SDS011;9041;49.718;21.798;2023-08-01T07:53:19;3.60;;;2.60;;
17832;SDS011;9041;49.718;21.798;2023-08-01T07:55:47;5.55;;;2.80;;
17832;SDS011;9041;49.718;21.798;2023-08-01T07:58:14;17.67;;;2.72;;
17832;SDS011;9041;49.718;21.798;2023-08-01T08:00:41;9.95;;;2.78;;
17832;SDS011;9041;49.718;21.798;2023-08-01T08:03:08;12.35;;;3.35;;
17832;SDS011;9041;49.718;21.798;2023-08-01T08:05:34;5.18;;;2.72;;
17832;SDS011;9041;49.718;21.798;2023-08-01T08:08:03;6.30;;;2.88;;
17832;SDS011;9041;49.718;21.798;2023-08-01T08:10:30;7.68;;;3.00;;
17832;SDS011;9041;49.718;21.798;2023-08-01T08:12:58;5.05;;;2.47;;
17832;SDS011;9041;49.718;21.798;2023-08-01T08:15:25;3.67;;;2.50;;
17832;SDS011;9041;49.718;21.798;2023-08-01T08:17:52;3.95;;;2.33;;
17832;SDS011;9041;49.718;21.798;2023-08-01T08:20:18;3.75;;;2.50;;
17832;SDS011;9041;49.718;21.798;2023-08-01T08:22:45;3.60;;;2.22;;
17832;SDS011;9041;49.718;21.798;2023-08-01T08:25:12;3.80;;;2.67;;
17832;SDS011;9041;49.718;21.798;2023-08-01T08:27:38;4.45;;;2.55;;
17832;SDS011;9041;49.718;21.798;2023-08-01T08:30:07;2.90;;;2.45;;
17832;SDS011;9041;49.718;21.798;2023-08-01T08:32:35;5.72;;;2.35;;
17832;SDS011;9041;49.718;21.798;2023-08-01T08:35:01;5.22;;;2.53;;
17832;SDS011;9041;49.718;21.798;2023-08-01T08:37:28;3.88;;;2.35;;
17832;SDS011;9041;49.718;21.798;2023-08-01T08:39:55;3.17;;;2.60;;
17832;SDS011;9041;49.718;21.798;2023-08-01T08:42:21;3.85;;;2.60;;
17832;SDS011;9041;49.718;21.798;2023-08-01T08:44:49;3.30;;;2.50;;
17832;SDS011;9041;49.718;21.798;2023-08-01T08:47:18;5.95;;;2.28;;
17832;SDS011;9041;49.718;21.798;2023-08-01T08:49:46;4.47;;;2.50;;
17832;SDS011;9041;49.718;21.798;2023-08-01T08:52:13;3.72;;;2.33;;
17832;SDS011;9041;49.718;21.798;2023-08-01T08:54:40;5.57;;;3.00;;
17832;SDS011;9041;49.718;21.798;2023-08-01T08:57:07;4.22;;;2.53;;
17832;SDS011;9041;49.718;21.798;2023-08-01T08:59:34;6.43;;;3.45;;
17832;SDS011;9041;49.718;21.798;2023-08-01T09:02:01;4.35;;;2.80;;
17832;SDS011;9041;49.718;21.798;2023-08-01T09:04:30;53.38;;;3.55;;
17832;SDS011;9041;49.718;21.798;2023-08-01T09:06:58;6.70;;;2.92;;
17832;SDS011;9041;49.718;21.798;2023-08-01T09:09:28;22.67;;;3.33;;
17832;SDS011;9041;49.718;21.798;2023-08-01T09:11:55;16.02;;;3.50;;
17832;SDS011;9041;49.718;21.798;2023-08-01T09:14:22;8.88;;;2.80;;
17832;SDS011;9041;49.718;21.798;2023-08-01T09:16:48;11.25;;;3.00;;
17832;SDS011;9041;49.718;21.798;2023-08-01T09:19:16;72.35;;;5.53;;
17832;SDS011;9041;49.718;21.798;2023-08-01T09:21:45;19.92;;;2.97;;
17832;SDS011;9041;49.718;21.798;2023-08-01T09:24:12;10.88;;;2.83;;
17832;SDS011;9041;49.718;21.798;2023-08-01T09:26:40;2.72;;;2.17;;
17832;SDS011;9041;49.718;21.798;2023-08-01T09:29:07;4.53;;;2.60;;
17832;SDS011;9041;49.718;21.798;2023-08-01T09:31:35;8.30;;;2.78;;
17832;SDS011;9041;49.718;21.798;2023-08-01T09:34:03;8.55;;;2.70;;
17832;SDS011;9041;49.718;21.798;2023-08-01T09:36:31;4.43;;;2.75;;
17832;SDS011;9041;49.718;21.798;2023-08-01T09:38:59;5.70;;;2.33;;
17832;SDS011;9041;49.718;21.798;2023-08-01T09:41:26;4.60;;;2.65;;
17832;SDS011;9041;49.718;21.798;2023-08-01T09:43:54;5.65;;;2.60;;
17832;SDS011;9041;49.718;21.798;2023-08-01T09:46:21;5.53;;;2.58;;
17832;SDS011;9041;49.718;21.798;2023-08-01T09:48:48;6.50;;;2.47;;
17832;SDS011;9041;49.718;21.798;2023-08-01T09:51:15;4.28;;;2.53;;
17832;SDS011;9041;49.718;21.798;2023-08-01T09:53:46;5.07;;;3.00;;
17832;SDS011;9041;49.718;21.798;2023-08-01T09:56:15;4.18;;;2.65;;
17832;SDS011;9041;49.718;21.798;2023-08-01T09:58:45;4.30;;;2.50;;
17832;SDS011;9041;49.718;21.798;2023-08-01T10:01:12;5.47;;;2.55;;
17832;SDS011;9041;49.718;21.798;2023-08-01T10:03:40;3.92;;;2.20;;
17832;SDS011;9041;49.718;21.798;2023-08-01T10:06:10;5.45;;;2.92;;
17832;SDS011;9041;49.718;21.798;2023-08-01T10:08:37;7.47;;;2.80;;
17832;SDS011;9041;49.718;21.798;2023-08-01T10:11:05;6.40;;;2.70;;
17832;SDS011;9041;49.718;21.798;2023-08-01T10:13:33;5.25;;;2.50;;
17832;SDS011;9041;49.718;21.798;2023-08-01T10:16:00;4.68;;;2.80;;
17832;SDS011;9041;49.718;21.798;2023-08-01T10:18:27;7.63;;;2.85;;
17832;SDS011;9041;49.718;21.798;2023-08-01T10:20:54;4.28;;;2.75;;
17832;SDS011;9041;49.718;21.798;2023-08-01T10:23:21;4.70;;;2.67;;
17832;SDS011;9041;49.718;21.798;2023-08-01T10:25:48;4.03;;;2.80;;
17832;SDS011;9041;49.718;21.798;2023-08-01T10:28:15;4.15;;;2.75;;
17832;SDS011;9041;49.718;21.798;2023-08-01T10:30:43;4.15;;;3.10;;
17832;SDS011;9041;49.718;21.798;2023-08-01T10:33:10;4.82;;;2.72;;
17832;SDS011;9041;49.718;21.798;2023-08-01T10:35:39;4.10;;;2.63;;
17832;SDS011;9041;49.718;21.798;2023-08-01T10:38:06;5.90;;;3.17;;
17832;SDS011;9041;49.718;21.798;2023-08-01T10:40:37;6.60;;;2.95;;
17832;SDS011;9041;49.718;21.798;2023-08-01T10:43:05;5.80;;;2.85;;
17832;SDS011;9041;49.718;21.798;2023-08-01T10:45:32;4.07;;;2.58;;
17832;SDS011;9041;49.718;21.798;2023-08-01T10:48:10;6.60;;;2.67;;
17832;SDS011;9041;49.718;21.798;2023-08-01T10:50:37;5.15;;;2.83;;
17832;SDS011;9041;49.718;21.798;2023-08-01T10:53:04;8.02;;;2.90;;
17832;SDS011;9041;49.718;21.798;2023-08-01T10:55:39;6.03;;;2.83;;
17832;SDS011;9041;49.718;21.798;2023-08-01T10:58:07;3.58;;;2.30;;
17832;SDS011;9041;49.718;21.798;2023-08-01T11:00:34;4.10;;;2.47;;
17832;SDS011;9041;49.718;21.798;2023-08-01T11:03:00;4.50;;;2.83;;
17832;SDS011;9041;49.718;21.798;2023-08-01T11:05:30;3.92;;;2.88;;
17832;SDS011;9041;49.718;21.798;2023-08-01T11:07:57;4.85;;;2.83;;
17832;SDS011;9041;49.718;21.798;2023-08-01T11:10:24;5.78;;;2.95;;
17832;SDS011;9041;49.718;21.798;2023-08-01T11:12:52;5.85;;;3.00;;
17832;SDS011;9041;49.718;21.798;2023-08-01T11:15:19;3.65;;;2.70;;
17832;SDS011;9041;49.718;21.798;2023-08-01T11:17:47;5.10;;;2.72;;
17832;SDS011;9041;49.718;21.798;2023-08-01T11:20:14;3.10;;;2.50;;
17832;SDS011;9041;49.718;21.798;2023-08-01T11:22:50;7.43;;;2.80;;
17832;SDS011;9041;49.718;21.798;2023-08-01T11:25:18;6.78;;;2.88;;
17832;SDS011;9041;49.718;21.798;2023-08-01T11:27:45;6.00;;;2.75;;
17832;SDS011;9041;49.718;21.798;2023-08-01T11:30:12;5.18;;;3.00;;
17832;SDS011;9041;49.718;21.798;2023-08-01T11:32:40;6.20;;;3.22;;
17832;SDS011;9041;49.718;21.798;2023-08-01T11:35:07;5.35;;;3.03;;
17832;SDS011;9041;49.718;21.798;2023-08-01T11:37:34;5.03;;;2.97;;
17832;SDS011;9041;49.718;21.798;2023-08-01T11:40:03;5.20;;;2.80;;
17832;SDS011;9041;49.718;21.798;2023-08-01T11:42:31;5.72;;;3.17;;
17832;SDS011;9041;49.718;21.798;2023-08-01T11:45:07;7.00;;;3.60;;
17832;SDS011;9041;49.718;21.798;2023-08-01T11:47:37;19.73;;;3.40;;
17832;SDS011;9041;49.718;21.798;2023-08-01T11:50:05;6.60;;;3.05;;
17832;SDS011;9041;49.718;21.798;2023-08-01T11:52:32;4.90;;;3.00;;
17832;SDS011;9041;49.718;21.798;2023-08-01T11:54:59;6.05;;;2.95;;
17832;SDS011;9041;49.718;21.798;2023-08-01T11:57:27;4.00;;;3.10;;
17832;SDS011;9041;49.718;21.798;2023-08-01T11:59:55;3.53;;;2.80;;
17832;SDS011;9041;49.718;21.798;2023-08-01T12:02:22;8.18;;;3.03;;
17832;SDS011;9041;49.718;21.798;2023-08-01T12:04:49;4.30;;;3.03;;
17832;SDS011;9041;49.718;21.798;2023-08-01T12:07:17;5.38;;;3.10;;
17832;SDS011;9041;49.718;21.798;2023-08-01T12:09:44;4.72;;;2.92;;
17832;SDS011;9041;49.718;21.798;2023-08-01T12:12:11;3.90;;;2.75;;
17832;SDS011;9041;49.718;21.798;2023-08-01T12:14:42;3.30;;;2.80;;
17832;SDS011;9041;49.718;21.798;2023-08-01T12:17:08;6.28;;;3.13;;
17832;SDS011;9041;49.718;21.798;2023-08-01T12:19:35;4.28;;;2.95;;
17832;SDS011;9041;49.718;21.798;2023-08-01T12:22:02;11.82;;;3.20;;
17832;SDS011;9041;49.718;21.798;2023-08-01T12:24:28;6.80;;;3.17;;
17832;SDS011;9041;49.718;21.798;2023-08-01T12:26:55;8.23;;;3.15;;
17832;SDS011;9041;49.718;21.798;2023-08-01T12:29:22;4.25;;;3.20;;
17832;SDS011;9041;49.718;21.798;2023-08-01T12:31:50;4.70;;;3.20;;
17832;SDS011;9041;49.718;21.798;2023-08-01T12:34:16;5.28;;;3.03;;
17832;SDS011;9041;49.718;21.798;2023-08-01T12:36:43;6.75;;;3.40;;
17832;SDS011;9041;49.718;21.798;2023-08-01T12:39:12;7.00;;;3.50;;
17832;SDS011;9041;49.718;21.798;2023-08-01T12:41:39;6.38;;;3.20;;
17832;SDS011;9041;49.718;21.798;2023-08-01T12:44:06;5.50;;;3.03;;
17832;SDS011;9041;49.718;21.798;2023-08-01T12:46:32;7.28;;;4.38;;
17832;SDS011;9041;49.718;21.798;2023-08-01T12:49:00;14.85;;;9.00;;
17832;SDS011;9041;49.718;21.798;2023-08-01T12:51:27;10.90;;;5.57;;
17832;SDS011;9041;49.718;21.798;2023-08-01T12:53:54;5.70;;;3.80;;
17832;SDS011;9041;49.718;21.798;2023-08-01T12:56:20;8.32;;;3.50;;
17832;SDS011;9041;49.718;21.798;2023-08-01T12:58:47;4.90;;;3.40;;
17832;SDS011;9041;49.718;21.798;2023-08-01T13:01:14;3.90;;;3.00;;
17832;SDS011;9041;49.718;21.798;2023-08-01T13:03:41;3.88;;;3.35;;
17832;SDS011;9041;49.718;21.798;2023-08-01T13:06:11;5.97;;;3.72;;
17832;SDS011;9041;49.718;21.798;2023-08-01T13:08:38;5.07;;;3.40;;
17832;SDS011;9041;49.718;21.798;2023-08-01T13:11:09;7.18;;;3.00;;
17832;SDS011;9041;49.718;21.798;2023-08-01T13:13:37;7.43;;;3.20;;
17832;SDS011;9041;49.718;21.798;2023-08-01T13:16:04;5.38;;;3.03;;
17832;SDS011;9041;49.718;21.798;2023-08-01T13:18:30;3.67;;;3.17;;
17832;SDS011;9041;49.718;21.798;2023-08-01T13:20:57;5.60;;;2.90;;
17832;SDS011;9041;49.718;21.798;2023-08-01T13:23:26;8.70;;;3.05;;
17832;SDS011;9041;49.718;21.798;2023-08-01T13:25:52;6.05;;;4.22;;
17832;SDS011;9041;49.718;21.798;2023-08-01T13:28:19;12.80;;;7.82;;
17832;SDS011;9041;49.718;21.798;2023-08-01T13:30:46;22.98;;;11.15;;
17832;SDS011;9041;49.718;21.798;2023-08-01T13:33:13;14.25;;;7.88;;
17832;SDS011;9041;49.718;21.798;2023-08-01T13:35:40;6.93;;;4.43;;
17832;SDS011;9041;49.718;21.798;2023-08-01T13:38:06;8.50;;;3.63;;
17832;SDS011;9041;49.718;21.798;2023-08-01T13:40:34;7.95;;;3.40;;
17832;SDS011;9041;49.718;21.798;2023-08-01T13:43:01;10.55;;;3.28;;
17832;SDS011;9041;49.718;21.798;2023-08-01T13:45:29;4.85;;;2.92;;
17832;SDS011;9041;49.718;21.798;2023-08-01T13:47:56;4.75;;;2.42;;
17832;SDS011;9041;49.718;21.798;2023-08-01T13:50:23;4.53;;;2.90;;
17832;SDS011;9041;49.718;21.798;2023-08-01T13:52:49;21.15;;;2.83;;
17832;SDS011;9041;49.718;21.798;2023-08-01T13:55:16;6.55;;;3.03;;
17832;SDS011;9041;49.718;21.798;2023-08-01T13:57:45;7.90;;;2.65;;
17832;SDS011;9041;49.718;21.798;2023-08-01T14:00:12;8.32;;;2.95;;
17832;SDS011;9041;49.718;21.798;2023-08-01T14:02:40;7.30;;;2.80;;
17832;SDS011;9041;49.718;21.798;2023-08-01T14:05:07;4.43;;;2.63;;
17832;SDS011;9041;49.718;21.798;2023-08-01T14:07:34;5.18;;;2.88;;
17832;SDS011;9041;49.718;21.798;2023-08-01T14:10:05;7.82;;;2.65;;
17832;SDS011;9041;49.718;21.798;2023-08-01T14:12:32;3.92;;;2.50;;
17832;SDS011;9041;49.718;21.798;2023-08-01T14:15:00;5.50;;;2.80;;
17832;SDS011;9041;49.718;21.798;2023-08-01T14:17:27;5.55;;;2.70;;
17832;SDS011;9041;49.718;21.798;2023-08-01T14:19:53;8.07;;;3.00;;
17832;SDS011;9041;49.718;21.798;2023-08-01T14:22:21;11.70;;;2.70;;
17832;SDS011;9041;49.718;21.798;2023-08-01T14:24:48;9.20;;;2.67;;
17832;SDS011;9041;49.718;21.798;2023-08-01T14:27:14;6.82;;;2.30;;
17832;SDS011;9041;49.718;21.798;2023-08-01T14:29:41;5.85;;;2.90;;
17832;SDS011;9041;49.718;21.798;2023-08-01T14:32:09;7.10;;;2.78;;
17832;SDS011;9041;49.718;21.798;2023-08-01T14:34:36;5.72;;;2.75;;
17832;SDS011;9041;49.718;21.798;2023-08-01T14:37:03;6.10;;;2.53;;
17832;SDS011;9041;49.718;21.798;2023-08-01T14:39:30;3.63;;;2.40;;
17832;SDS011;9041;49.718;21.798;2023-08-01T14:41:56;4.53;;;2.88;;